Terminal Aerodrome Forecast
Issued by NWS

Home | Current Version | Previous Version | Text Only | Print | Product List | Glossary On
Versions: 1 2 3 4 5 6 7 8 9 10 11 12 13
000
FTUS44 KLIX 202320
TAFMSY
TAF
KMSY 202320Z 2100/2124 10005KT P6SM FEW200
     FM211300 06004KT P6SM FEW015 SCT250
     FM211800 09008KT P6SM FEW035 SCT120
     FM212100 12008KT P6SM FEW040 SCT150=

USA.gov is the U.S. government's official web portal to all federal, state and local government web resources and services.